Time;durP1;ratioP1;P1;durP2;ratioP2;P2;SDS_P1;SDS_P2;PMS_P1;PMS_P2;Temp;Humidity;BMP_temperature;BMP_pressure;BME280_temperature;BME280_humidity;BME280_pressure;Samples;Min_cycle;Max_cycle;Signal;HPM_P1;HPM_P2
2022/05/13 00:00:48;;;;;;;;;;;;;;;18.65;51.95;101495.38;1021578;29;865;-62
2022/05/13 00:01:39;;;;;;;;;;;;;;;18.64;52.29;101493.69;1021446;29;698;-62
2022/05/13 00:02:29;;;;;;;;;;;;;;;18.64;52.37;101496.38;1021307;29;1696;-62
2022/05/13 00:03:20;;;;;;;;;;;;;;;18.64;52.81;101501.78;1022655;28;635;-63
2022/05/13 00:04:10;;;;;;;;;;;;;;;18.64;52.75;101499.06;1023062;28;777;-62
2022/05/13 00:05:01;;;;;;;;;;;;;;;18.62;52.03;101499.25;1022457;28;639;-62
2022/05/13 00:05:52;;;;;;;;;;;;;;;18.62;52.27;101498.38;1022466;28;658;-62
2022/05/13 00:06:43;;;;;;;;;;;;;;;18.62;52.83;101493.84;1022675;28;654;-62
2022/05/13 00:07:33;;;;;;;;;;;;;;;18.61;52.19;101497.53;1022556;28;611;-62
2022/05/13 00:08:23;;;;;;;;;;;;;;;18.61;52.27;101492.13;1022692;28;896;-62
2022/05/13 00:09:14;;;;;;;;;;;;;;;18.61;52.42;101496.66;1025679;28;659;-62
2022/05/13 00:10:07;;;;;;;;;;;;;;;18.61;52.95;101493.97;1026215;28;659;-62
2022/05/13 00:10:57;;;;;;;;;;;;;;;18.63;52.56;101492.81;1018123;29;718;-62
2022/05/13 00:11:48;;;;;;;;;;;;;;;18.61;52.66;101500.22;1021863;29;1640;-62
2022/05/13 00:12:40;;;;;;;;;;;;;;;18.60;52.19;101487.72;1022378;28;674;-62
2022/05/13 00:13:31;;;;;;;;;;;;;;;18.61;52.90;101491.28;1022616;28;647;-62
2022/05/13 00:14:21;;;;;;;;;;;;;;;18.60;53.08;101489.56;1025672;28;666;-63
2022/05/13 00:15:11;;;;;;;;;;;;;;;18.60;52.68;101487.72;1026174;28;647;-63
2022/05/13 00:16:04;;;;;;;;;;;;;;;18.60;52.02;101486.88;1022055;28;1961;-62
2022/05/13 00:16:54;;;;;;;;;;;;;;;18.60;52.35;101485.03;1022700;28;674;-63
2022/05/13 00:17:46;;;;;;;;;;;;;;;18.60;52.40;101490.41;1022197;29;663;-65
2022/05/13 00:18:37;;;;;;;;;;;;;;;18.60;52.40;101490.41;1022461;28;698;-63
2022/05/13 00:19:27;;;;;;;;;;;;;;;18.61;53.12;101483.19;1022523;28;748;-63
2022/05/13 00:20:18;;;;;;;;;;;;;;;18.60;52.41;101484.16;1022694;28;634;-63
2022/05/13 00:21:08;;;;;;;;;;;;;;;18.58;52.48;101486.97;1022482;28;602;-63
2022/05/13 00:21:58;;;;;;;;;;;;;;;18.59;52.52;101487.84;1022698;28;643;-64
2022/05/13 00:22:49;;;;;;;;;;;;;;;18.58;53.21;101492.38;1021646;29;699;-63
2022/05/13 00:23:39;;;;;;;;;;;;;;;18.57;52.65;101487.09;1021600;29;699;-63
2022/05/13 00:24:30;;;;;;;;;;;;;;;18.58;52.33;101491.50;1018156;29;687;-63
2022/05/13 00:25:20;;;;;;;;;;;;;;;18.58;52.48;101486.97;1018009;29;678;-63
2022/05/13 00:26:11;;;;;;;;;;;;;;;18.58;52.61;101495.06;1018119;29;611;-62
2022/05/13 00:27:01;;;;;;;;;;;;;;;18.58;52.79;101478.00;1022240;28;679;-62
2022/05/13 00:27:51;;;;;;;;;;;;;;;18.56;52.83;101488.09;1022147;28;705;-62
2022/05/13 00:28:42;;;;;;;;;;;;;;;18.56;52.05;101488.94;1018680;28;659;-63
2022/05/13 00:29:32;;;;;;;;;;;;;;;18.56;52.98;101479.97;1017953;29;678;-62
2022/05/13 00:30:23;;;;;;;;;;;;;;;18.56;52.60;101479.97;1018092;29;660;-62
2022/05/13 00:31:13;;;;;;;;;;;;;;;18.55;52.30;101484.53;1018541;29;650;-62
2022/05/13 00:32:03;;;;;;;;;;;;;;;18.54;52.74;101482.81;1017982;29;722;-63
2022/05/13 00:32:54;;;;;;;;;;;;;;;18.55;52.65;101475.56;1018860;29;521;-64
2022/05/13 00:33:44;;;;;;;;;;;;;;;18.55;52.94;101481.84;1022934;29;745;-63
2022/05/13 00:34:35;;;;;;;;;;;;;;;18.54;52.40;101479.25;1021287;29;750;-63
2022/05/13 00:35:25;;;;;;;;;;;;;;;18.54;52.98;101473.88;1018119;29;702;-63
2022/05/13 00:36:15;;;;;;;;;;;;;;;18.53;53.21;101480.25;1018115;29;643;-62
2022/05/13 00:37:06;;;;;;;;;;;;;;;18.53;52.84;101478.41;1018175;29;695;-62
2022/05/13 00:37:56;;;;;;;;;;;;;;;18.53;53.14;101470.31;1018095;29;656;-62
2022/05/13 00:38:47;;;;;;;;;;;;;;;18.53;52.41;101480.25;1018356;29;695;-62
2022/05/13 00:39:38;;;;;;;;;;;;;;;18.52;52.98;101474.00;1018362;29;703;-62
2022/05/13 00:40:28;;;;;;;;;;;;;;;18.53;52.64;101477.56;1018260;29;647;-62
2022/05/13 00:41:19;;;;;;;;;;;;;;;18.53;52.67;101477.56;1018718;29;664;-63
2022/05/13 00:42:09;;;;;;;;;;;;;;;18.53;52.61;101475.72;1021133;29;1680;-62
2022/05/13 00:43:00;;;;;;;;;;;;;;;18.53;52.43;101472.16;1021520;29;679;-62
2022/05/13 00:43:51;;;;;;;;;;;;;;;18.53;52.51;101466.75;1021129;29;1688;-62
2022/05/13 00:44:42;;;;;;;;;;;;;;;18.52;52.18;101470.44;1023085;28;634;-63
2022/05/13 00:45:32;;;;;;;;;;;;;;;18.51;53.14;101463.34;1022454;28;717;-62
2022/05/13 00:46:23;;;;;;;;;;;;;;;18.50;52.27;101467.88;1022035;29;701;-62
2022/05/13 00:47:13;;;;;;;;;;;;;;;18.51;52.50;101460.63;1022499;28;729;-63
2022/05/13 00:48:04;;;;;;;;;;;;;;;18.51;52.46;101463.34;1022509;28;827;-63
2022/05/13 00:48:54;;;;;;;;;;;;;;;18.51;52.33;101464.19;1022487;28;647;-63
2022/05/13 00:49:44;;;;;;;;;;;;;;;18.51;52.99;101466.88;1025556;28;729;-63
2022/05/13 00:50:35;;;;;;;;;;;;;;;18.51;52.20;101464.19;1024469;29;1199;-64
2022/05/13 00:51:26;;;;;;;;;;;;;;;18.51;53.13;101466.03;1020909;29;710;-63
2022/05/13 00:52:16;;;;;;;;;;;;;;;18.50;52.54;101462.47;1020854;29;722;-63
2022/05/13 00:53:07;;;;;;;;;;;;;;;18.49;52.75;101470.72;1022034;29;643;-64
2022/05/13 00:53:57;;;;;;;;;;;;;;;18.49;52.58;101465.31;1021516;28;1815;-64
2022/05/13 00:54:47;;;;;;;;;;;;;;;18.49;52.21;101462.59;1022077;28;662;-64
2022/05/13 00:55:38;;;;;;;;;;;;;;;18.48;52.74;101459.06;1021704;28;635;-63
2022/05/13 00:56:30;;;;;;;;;;;;;;;18.49;52.35;101459.91;1021351;29;749;-63
2022/05/13 00:57:21;;;;;;;;;;;;;;;18.48;52.48;101452.81;1025095;29;650;-62
2022/05/13 00:58:11;;;;;;;;;;;;;;;18.48;53.13;101458.19;1025080;29;654;-63
2022/05/13 00:59:02;;;;;;;;;;;;;;;18.48;52.65;101458.19;1021003;29;648;-63
2022/05/13 00:59:53;;;;;;;;;;;;;;;18.48;52.81;101456.34;1020927;29;651;-63
2022/05/13 01:00:43;;;;;;;;;;;;;;;18.47;52.84;101443.84;1020860;29;635;-63
2022/05/13 01:01:34;;;;;;;;;;;;;;;18.48;52.95;101452.81;1021176;29;1716;-63
2022/05/13 01:02:24;;;;;;;;;;;;;;;18.47;53.12;101459.19;1021240;29;636;-63
2022/05/13 01:03:15;;;;;;;;;;;;;;;18.47;52.58;101453.78;1021364;29;710;-63
2022/05/13 01:04:05;;;;;;;;;;;;;;;18.45;52.56;101462.03;1025039;29;722;-63
2022/05/13 01:04:56;;;;;;;;;;;;;;;18.47;52.99;101461.88;1025041;29;690;-63
2022/05/13 01:05:46;;;;;;;;;;;;;;;18.45;52.42;101464.72;1020919;29;636;-63
2022/05/13 01:06:36;;;;;;;;;;;;;;;18.46;52.51;101468.28;1021452;29;655;-63
2022/05/13 01:07:27;;;;;;;;;;;;;;;18.45;53.01;101458.50;1021104;29;1681;-63
2022/05/13 01:08:18;;;;;;;;;;;;;;;18.45;53.33;101466.59;1025797;28;709;-64
2022/05/13 01:09:08;;;;;;;;;;;;;;;18.45;53.38;101455.81;1026038;28;669;-64
2022/05/13 01:09:59;;;;;;;;;;;;;;;18.46;52.56;101454.78;1022080;28;615;-63
2022/05/13 01:10:49;;;;;;;;;;;;;;;18.45;52.26;101455.81;1021811;29;734;-64
2022/05/13 01:11:40;;;;;;;;;;;;;;;18.45;52.54;101453.09;1022769;28;627;-63
2022/05/13 01:12:31;;;;;;;;;;;;;;;18.45;52.63;101453.09;1022401;28;639;-63
2022/05/13 01:13:23;;;;;;;;;;;;;;;18.45;52.77;101453.09;1022412;28;714;-63
2022/05/13 01:14:13;;;;;;;;;;;;;;;18.45;52.92;101450.41;1021874;29;710;-63
2022/05/13 01:15:03;;;;;;;;;;;;;;;18.43;52.87;101455.94;1022442;28;647;-64
2022/05/13 01:15:54;;;;;;;;;;;;;;;18.43;53.36;101455.06;1022259;28;1960;-63
2022/05/13 01:18:06;;;;;;;;;;;;;;;18.43;53.07;101453.22;1022421;28;715;-64
2022/05/13 01:18:56;;;;;;;;;;;;;;;18.41;52.36;101452.50;1022701;28;623;-63
2022/05/13 01:19:47;;;;;;;;;;;;;;;18.39;53.36;101455.34;1021790;29;1525;-64
2022/05/13 01:20:37;;;;;;;;;;;;;;;18.42;52.47;101458.75;1020777;29;1382;-64
2022/05/13 01:21:29;;;;;;;;;;;;;;;18.41;52.83;101457.06;1022171;29;690;-64
2022/05/13 01:22:20;;;;;;;;;;;;;;;18.39;53.24;101446.38;1022152;29;691;-64
2022/05/13 01:23:10;;;;;;;;;;;;;;;18.41;52.94;101443.56;1021496;29;635;-63
2022/05/13 01:24:01;;;;;;;;;;;;;;;18.40;52.55;101448.09;1021564;29;683;-63
2022/05/13 01:24:51;;;;;;;;;;;;;;;18.41;52.63;101451.66;1022053;29;690;-64
2022/05/13 01:25:41;;;;;;;;;;;;;;;18.40;52.86;101456.19;1021380;29;738;-64
2022/05/13 01:26:35;;;;;;;;;;;;;;;18.39;53.20;101449.94;1021567;29;628;-64
2022/05/13 01:27:26;;;;;;;;;;;;;;;18.39;52.58;101459.88;1022076;29;707;-63
2022/05/13 01:28:16;;;;;;;;;;;;;;;18.39;52.73;101452.66;1022436;29;651;-64
2022/05/13 01:29:06;;;;;;;;;;;;;;;18.39;53.24;101449.94;1022450;29;655;-64
2022/05/13 01:29:57;;;;;;;;;;;;;;;18.38;53.44;101450.94;1021649;29;632;-64
2022/05/13 01:30:47;;;;;;;;;;;;;;;18.39;52.73;101447.25;1021637;29;749;-64
2022/05/13 01:31:38;;;;;;;;;;;;;;;18.37;52.57;101451.91;1022946;29;631;-65
2022/05/13 01:32:28;;;;;;;;;;;;;;;18.37;53.29;101446.53;1023042;29;771;-65
2022/05/13 01:33:19;;;;;;;;;;;;;;;18.38;52.88;101453.63;1022340;29;710;-65
2022/05/13 01:34:09;;;;;;;;;;;;;;;18.37;53.24;101449.22;1021519;29;916;-65
2022/05/13 01:35:00;;;;;;;;;;;;;;;18.36;53.65;101449.34;1021388;29;659;-63
2022/05/13 01:35:50;;;;;;;;;;;;;;;18.35;53.13;101445.81;1022033;29;1953;-65
2022/05/13 01:36:40;;;;;;;;;;;;;;;18.36;53.27;101447.50;1026352;28;686;-64
2022/05/13 01:37:31;;;;;;;;;;;;;;;18.37;52.67;101457.31;1023555;29;690;-64
2022/05/13 01:38:21;;;;;;;;;;;;;;;18.36;53.32;101450.22;1020412;29;594;-64
2022/05/13 01:39:12;;;;;;;;;;;;;;;18.37;53.29;101451.91;1021895;28;718;-65
2022/05/13 01:40:02;;;;;;;;;;;;;;;18.35;52.99;101448.50;1022125;28;572;-64
2022/05/13 01:40:52;;;;;;;;;;;;;;;18.36;52.84;101449.34;1022311;28;655;-64
2022/05/13 01:41:43;;;;;;;;;;;;;;;18.35;53.03;101440.41;1022245;28;694;-64
2022/05/13 01:42:34;;;;;;;;;;;;;;;18.35;52.97;101448.50;1025760;28;639;-64
2022/05/13 01:43:24;;;;;;;;;;;;;;;18.35;53.16;101448.50;1026258;28;639;-65
2022/05/13 01:44:15;;;;;;;;;;;;;;;18.35;52.78;101445.81;1021718;29;726;-65
2022/05/13 01:45:05;;;;;;;;;;;;;;;18.35;52.66;101450.34;1022023;28;1747;-64
2022/05/13 01:45:56;;;;;;;;;;;;;;;18.35;52.76;101453.91;1023385;29;753;-65
2022/05/13 01:46:47;;;;;;;;;;;;;;;18.35;53.26;101456.59;1025575;29;1593;-64
2022/05/13 01:47:37;;;;;;;;;;;;;;;18.35;52.67;101451.19;1025586;29;667;-64
2022/05/13 01:48:28;;;;;;;;;;;;;;;18.35;53.20;101453.91;1024588;28;828;-65
2022/05/13 01:49:18;;;;;;;;;;;;;;;18.33;53.40;101450.47;1022962;29;718;-64
2022/05/13 01:50:08;;;;;;;;;;;;;;;18.34;53.13;101454.03;1021910;29;694;-64
2022/05/13 01:50:59;;;;;;;;;;;;;;;18.34;53.54;101452.19;1023701;28;818;-64
2022/05/13 01:51:49;;;;;;;;;;;;;;;18.34;53.22;101448.63;1025540;28;822;-64
2022/05/13 01:52:40;;;;;;;;;;;;;;;18.33;53.67;101447.78;1026316;28;666;-64
2022/05/13 01:53:30;;;;;;;;;;;;;;;18.33;53.45;101445.06;1022644;28;662;-63
2022/05/13 01:54:22;;;;;;;;;;;;;;;18.33;53.70;101453.16;1023417;28;667;-63
2022/05/13 01:55:12;;;;;;;;;;;;;;;18.33;52.97;101450.47;1027005;28;1774;-64
2022/05/13 01:56:03;;;;;;;;;;;;;;;18.33;53.67;101446.91;1022977;29;1948;-64
2022/05/13 01:56:54;;;;;;;;;;;;;;;18.33;53.25;101446.91;1017360;29;659;-64
2022/05/13 01:57:44;;;;;;;;;;;;;;;18.32;53.34;101453.31;1022463;28;666;-64
2022/05/13 01:58:35;;;;;;;;;;;;;;;18.32;53.19;101446.06;1022987;29;727;-64
2022/05/13 02:00:03;;;;;;;;;;;;;;;18.32;53.26;101451.47;1027732;28;1886;-62
2022/05/13 02:00:53;;;;;;;;;;;;;;;18.31;53.23;101447.06;1028635;28;631;-64
2022/05/13 02:01:43;;;;;;;;;;;;;;;18.30;53.62;101450.75;1029854;28;748;-63
2022/05/13 02:03:44;;;;;;;;;;;;;;;18.29;53.55;101440.94;1028839;28;674;-63
2022/05/13 02:03:44;;;;;;;;;;;;;;;18.30;53.87;101447.19;1027659;28;1194;-63
2022/05/13 02:04:35;;;;;;;;;;;;;;;18.28;53.18;101447.31;1028583;28;627;-63
2022/05/13 02:05:25;;;;;;;;;;;;;;;18.30;52.87;101445.34;1028616;28;597;-63
2022/05/13 02:06:15;;;;;;;;;;;;;;;18.30;53.31;101444.50;1028229;28;950;-62
2022/05/13 02:07:06;;;;;;;;;;;;;;;18.29;53.43;101442.78;1028225;28;1634;-62
2022/05/13 02:07:56;;;;;;;;;;;;;;;18.29;53.01;101443.63;1024679;29;659;-62
2022/05/13 02:08:47;;;;;;;;;;;;;;;18.29;53.19;101442.78;1024678;29;681;-62
2022/05/13 02:09:37;;;;;;;;;;;;;;;18.28;52.92;101450.00;1024038;29;619;-62
2022/05/13 02:10:28;;;;;;;;;;;;;;;18.28;53.37;101441.91;1024638;29;635;-62
2022/05/13 02:11:19;;;;;;;;;;;;;;;18.29;53.99;101451.72;1024461;29;828;-63
2022/05/13 02:12:09;;;;;;;;;;;;;;;18.28;53.62;101441.91;1024663;29;663;-63
2022/05/13 02:13:00;;;;;;;;;;;;;;;18.28;53.29;101441.91;1024380;29;632;-64
2022/05/13 02:13:51;;;;;;;;;;;;;;;18.28;53.02;101455.41;1024601;29;710;-63
2022/05/13 02:14:42;;;;;;;;;;;;;;;18.28;53.73;101446.47;1024443;29;705;-63
2022/05/13 02:15:32;;;;;;;;;;;;;;;18.28;53.56;101441.06;1024513;29;666;-62
2022/05/13 02:16:23;;;;;;;;;;;;;;;18.28;53.13;101443.75;1028298;28;655;-62
2022/05/13 02:17:13;;;;;;;;;;;;;;;18.26;53.75;101435.84;1028261;28;686;-62
2022/05/13 02:18:03;;;;;;;;;;;;;;;18.26;53.53;101438.53;1024785;29;713;-62
2022/05/13 02:18:54;;;;;;;;;;;;;;;18.27;53.45;101436.69;1024810;29;694;-62
2022/05/13 02:19:44;;;;;;;;;;;;;;;18.26;53.58;101438.53;1024995;29;706;-62
2022/05/13 02:20:35;;;;;;;;;;;;;;;18.27;53.59;101436.69;1024450;29;691;-62
2022/05/13 02:21:26;;;;;;;;;;;;;;;18.26;53.89;101437.69;1024598;29;729;-62
2022/05/13 02:22:16;;;;;;;;;;;;;;;18.25;53.63;101436.81;1027652;28;623;-62
2022/05/13 02:23:06;;;;;;;;;;;;;;;18.26;53.14;101440.38;1028843;28;694;-63
2022/05/13 02:23:57;;;;;;;;;;;;;;;18.26;53.14;101438.53;1025206;28;905;-62
2022/05/13 02:24:47;;;;;;;;;;;;;;;18.25;53.53;101435.97;1024482;29;683;-62
2022/05/13 02:25:38;;;;;;;;;;;;;;;18.24;53.91;101443.19;1024542;29;651;-62
2022/05/13 02:26:28;;;;;;;;;;;;;;;18.25;53.20;101436.81;1027702;28;611;-61
2022/05/13 02:27:18;;;;;;;;;;;;;;;18.25;53.33;101444.91;1028762;28;694;-61
2022/05/13 02:28:09;;;;;;;;;;;;;;;18.26;53.23;101445.78;1025072;28;686;-61
2022/05/13 02:29:01;;;;;;;;;;;;;;;18.25;53.25;101436.81;1024450;29;635;-61
2022/05/13 02:29:51;;;;;;;;;;;;;;;18.25;53.27;101442.22;1024542;29;856;-61
2022/05/13 02:30:42;;;;;;;;;;;;;;;18.25;53.56;101446.75;1027481;28;932;-61
2022/05/13 02:31:32;;;;;;;;;;;;;;;18.24;53.63;101445.03;1024754;29;698;-61
2022/05/13 02:32:23;;;;;;;;;;;;;;;18.25;53.19;101438.66;1024777;29;722;-62
2022/05/13 02:33:13;;;;;;;;;;;;;;;18.23;53.69;101446.88;1025668;28;631;-62
2022/05/13 02:34:03;;;;;;;;;;;;;;;18.23;53.92;101444.19;1024556;29;655;-61
2022/05/13 02:34:54;;;;;;;;;;;;;;;18.24;53.98;101448.59;1024440;29;683;-61
2022/05/13 02:35:44;;;;;;;;;;;;;;;18.24;53.88;101439.66;1027627;28;639;-61
2022/05/13 02:36:35;;;;;;;;;;;;;;;18.23;54.18;101440.63;1029372;28;603;-62
2022/05/13 02:37:26;;;;;;;;;;;;;;;18.21;53.68;101440.78;1024785;29;697;-61
2022/05/13 02:38:16;;;;;;;;;;;;;;;18.21;53.79;101440.78;1025318;28;758;-61
2022/05/13 02:39:07;;;;;;;;;;;;;;;18.23;53.40;101435.25;1025574;28;697;-61
2022/05/13 02:39:57;;;;;;;;;;;;;;;18.22;53.97;101436.22;1025031;29;614;-61
2022/05/13 02:41:57;;;;;;;;;;;;;;;18.21;53.84;101429.13;1028303;28;647;-61
2022/05/13 02:42:47;;;;;;;;;;;;;;;18.20;53.84;101425.56;1025631;28;622;-61
2022/05/13 02:43:37;;;;;;;;;;;;;;;18.21;54.44;101421.88;1025049;29;693;-61
2022/05/13 02:44:28;;;;;;;;;;;;;;;18.21;53.97;101419.19;1023820;29;663;-61
2022/05/13 02:45:18;;;;;;;;;;;;;;;18.21;53.77;101418.34;1024009;29;604;-61
2022/05/13 02:46:09;;;;;;;;;;;;;;;18.21;53.68;101421.03;1024166;29;639;-61
2022/05/13 02:46:59;;;;;;;;;;;;;;;18.20;53.69;101416.63;1025022;29;671;-61
2022/05/13 02:47:50;;;;;;;;;;;;;;;18.20;53.83;101417.47;1025015;29;690;-61
2022/05/13 02:48:40;;;;;;;;;;;;;;;18.20;53.62;101411.22;1027575;28;1654;-63
2022/05/13 02:49:30;;;;;;;;;;;;;;;18.20;53.93;101414.78;1028472;28;627;-61
2022/05/13 02:50:21;;;;;;;;;;;;;;;18.20;54.07;101414.78;1028296;28;1650;-61
2022/05/13 02:51:11;;;;;;;;;;;;;;;18.19;54.31;101413.06;1025001;29;622;-61
2022/05/13 02:52:02;;;;;;;;;;;;;;;18.20;53.48;101414.78;1025000;28;756;-61
2022/05/13 02:52:52;;;;;;;;;;;;;;;18.21;53.61;101418.34;1023249;29;696;-61
2022/05/13 02:53:42;;;;;;;;;;;;;;;18.21;54.34;101419.19;1026088;28;694;-61
2022/05/13 02:54:33;;;;;;;;;;;;;;;18.20;53.86;101417.47;1026170;28;630;-62
2022/05/13 02:55:23;;;;;;;;;;;;;;;18.20;53.88;101414.78;1027721;29;651;-62
2022/05/13 02:56:14;;;;;;;;;;;;;;;18.19;54.55;101421.16;1027476;28;1875;-63
2022/05/13 02:57:04;;;;;;;;;;;;;;;18.19;54.50;101415.75;1026155;28;654;-62
2022/05/13 02:57:55;;;;;;;;;;;;;;;18.20;54.39;101417.47;1023561;29;674;-61
2022/05/13 02:58:45;;;;;;;;;;;;;;;18.19;53.87;101412.22;1023587;29;639;-62
2022/05/13 02:59:35;;;;;;;;;;;;;;;18.18;54.22;101411.34;1024145;28;1127;-62
2022/05/13 03:00:26;;;;;;;;;;;;;;;18.18;54.18;101414.06;1029135;28;646;-61
2022/05/13 03:01:16;;;;;;;;;;;;;;;18.19;54.11;101410.38;1029040;28;610;-62
2022/05/13 03:02:07;;;;;;;;;;;;;;;18.19;54.15;101418.47;1028990;28;634;-61
2022/05/13 03:02:57;;;;;;;;;;;;;;;18.18;53.83;101422.16;1025932;28;642;-62
2022/05/13 03:03:48;;;;;;;;;;;;;;;18.18;53.91;101424.84;1024791;29;627;-62
2022/05/13 03:04:38;;;;;;;;;;;;;;;18.18;54.46;101424.84;1028422;28;674;-62
2022/05/13 03:05:29;;;;;;;;;;;;;;;18.18;54.18;101424.00;1027973;28;647;-62
2022/05/13 03:06:19;;;;;;;;;;;;;;;18.17;53.68;101431.22;1028439;28;609;-62
2022/05/13 03:07:09;;;;;;;;;;;;;;;18.16;53.62;101434.91;1029022;28;628;-63
2022/05/13 03:08:01;;;;;;;;;;;;;;;18.15;54.20;101430.50;1029620;28;641;-63
2022/05/13 03:08:51;;;;;;;;;;;;;;;18.15;54.40;101427.81;1028945;28;643;-63
2022/05/13 03:09:42;;;;;;;;;;;;;;;18.15;54.36;101430.50;1029569;28;658;-63
2022/05/13 03:10:32;;;;;;;;;;;;;;;18.13;54.30;101427.09;1024087;29;550;-62
2022/05/13 03:11:22;;;;;;;;;;;;;;;18.14;53.70;101427.94;1024637;29;721;-62
2022/05/13 03:12:13;;;;;;;;;;;;;;;18.13;54.23;101429.78;1028467;28;635;-63
2022/05/13 03:13:03;;;;;;;;;;;;;;;18.14;53.87;101436.03;1028315;28;713;-62
2022/05/13 03:13:54;;;;;;;;;;;;;;;18.13;54.29;101432.47;1028320;28;666;-62
2022/05/13 03:14:44;;;;;;;;;;;;;;;18.14;54.10;101431.50;1025787;28;802;-62
2022/05/13 03:15:35;;;;;;;;;;;;;;;18.13;54.24;101431.63;1025253;28;706;-63
2022/05/13 03:16:25;;;;;;;;;;;;;;;18.13;54.09;101434.31;1028396;28;1687;-62
2022/05/13 03:17:16;;;;;;;;;;;;;;;18.13;54.22;101428.91;1032960;28;654;-63
2022/05/13 03:18:06;;;;;;;;;;;;;;;18.13;54.28;101432.47;1032898;28;611;-62
2022/05/13 03:18:58;;;;;;;;;;;;;;;18.12;54.31;101427.22;1032607;28;728;-63
2022/05/13 03:19:48;;;;;;;;;;;;;;;18.13;54.84;101428.91;1032394;28;619;-63
2022/05/13 03:20:39;;;;;;;;;;;;;;;18.12;54.27;101435.31;1033004;28;607;-63
2022/05/13 03:21:29;;;;;;;;;;;;;;;18.12;53.99;101436.16;1032982;28;627;-63
2022/05/13 03:22:20;;;;;;;;;;;;;;;18.12;54.15;101436.16;1033034;28;713;-63
2022/05/13 03:23:10;;;;;;;;;;;;;;;18.11;54.03;101437.16;1033044;28;635;-63
2022/05/13 03:24:00;;;;;;;;;;;;;;;18.11;54.59;101434.44;1032917;28;679;-63
2022/05/13 03:24:51;;;;;;;;;;;;;;;18.12;53.87;101438.84;1033016;28;702;-63
2022/05/13 03:25:41;;;;;;;;;;;;;;;18.11;54.01;101433.59;1032967;28;631;-63
2022/05/13 03:26:32;;;;;;;;;;;;;;;18.11;54.10;101441.69;1033020;28;646;-63
2022/05/13 03:27:22;;;;;;;;;;;;;;;18.10;54.26;101432.75;1032892;28;683;-63
2022/05/13 03:28:12;;;;;;;;;;;;;;;18.11;53.60;101433.59;1032867;28;669;-63
2022/05/13 03:29:04;;;;;;;;;;;;;;;18.09;54.11;101433.75;1032890;28;648;-63
2022/05/13 03:29:55;;;;;;;;;;;;;;;18.09;53.97;101431.06;1032486;28;721;-63
2022/05/13 03:30:45;;;;;;;;;;;;;;;18.08;54.12;101429.34;1032698;28;1846;-63
2022/05/13 03:31:36;;;;;;;;;;;;;;;18.08;53.92;101433.88;1032447;28;689;-63
2022/05/13 03:32:26;;;;;;;;;;;;;;;18.08;54.37;101431.19;1032823;28;630;-63
2022/05/13 03:33:17;;;;;;;;;;;;;;;18.06;53.65;101436.72;1027838;28;692;-63
2022/05/13 03:34:07;;;;;;;;;;;;;;;18.06;54.16;101434.03;1027491;28;627;-63
2022/05/13 03:34:58;;;;;;;;;;;;;;;18.07;54.03;101437.56;1031460;28;695;-63
2022/05/13 03:35:48;;;;;;;;;;;;;;;18.07;54.14;101433.03;1033525;28;674;-63
2022/05/13 03:36:39;;;;;;;;;;;;;;;18.06;54.37;101441.25;1032909;28;674;-63
2022/05/13 03:37:29;;;;;;;;;;;;;;;18.05;54.30;101435.00;1032938;28;619;-62
2022/05/13 03:38:20;;;;;;;;;;;;;;;18.05;54.58;101435.00;1032342;28;588;-63
2022/05/13 03:39:10;;;;;;;;;;;;;;;18.04;53.98;101433.28;1033572;28;627;-63
2022/05/13 03:40:00;;;;;;;;;;;;;;;18.05;54.66;101435.00;1031863;28;705;-63
2022/05/13 03:40:51;;;;;;;;;;;;;;;18.05;54.57;101435.00;1032885;28;635;-63
2022/05/13 03:41:41;;;;;;;;;;;;;;;18.05;54.31;101440.41;1034227;28;613;-63
2022/05/13 03:42:32;;;;;;;;;;;;;;;18.04;54.69;101439.53;1034184;28;634;-63
2022/05/13 03:43:22;;;;;;;;;;;;;;;18.04;54.59;101436.00;1034316;28;622;-63
2022/05/13 03:44:12;;;;;;;;;;;;;;;18.03;53.77;101440.53;1032876;28;1670;-63
2022/05/13 03:45:03;;;;;;;;;;;;;;;18.04;53.76;101441.38;1033574;28;603;-63
2022/05/13 03:45:53;;;;;;;;;;;;;;;18.04;53.95;101441.38;1033628;28;595;-63
2022/05/13 03:46:44;;;;;;;;;;;;;;;18.05;54.24;101451.19;1033599;28;647;-63
2022/05/13 03:47:34;;;;;;;;;;;;;;;18.03;53.83;101443.22;1037408;28;705;-63
2022/05/13 03:48:25;;;;;;;;;;;;;;;18.04;54.14;101444.09;1036387;28;643;-63
2022/05/13 03:49:15;;;;;;;;;;;;;;;18.03;54.35;101445.06;1028282;28;627;-63
2022/05/13 03:50:06;;;;;;;;;;;;;;;18.03;54.47;101447.75;1029290;28;639;-62
2022/05/13 03:50:56;;;;;;;;;;;;;;;18.02;54.70;101444.22;1032978;28;1201;-62
2022/05/13 03:51:46;;;;;;;;;;;;;;;18.02;54.33;101446.06;1033667;28;710;-62
2022/05/13 03:52:37;;;;;;;;;;;;;;;18.01;54.23;101445.19;1033619;28;669;-62
2022/05/13 03:53:27;;;;;;;;;;;;;;;18.02;54.18;101443.34;1033544;28;607;-62
2022/05/13 03:54:18;;;;;;;;;;;;;;;18.02;54.65;101444.22;1033611;28;623;-64
2022/05/13 03:55:08;;;;;;;;;;;;;;;18.04;54.56;101449.47;1033529;28;631;-64
2022/05/13 03:55:59;;;;;;;;;;;;;;;18.03;54.37;101450.47;1033687;28;1950;-64
2022/05/13 03:56:49;;;;;;;;;;;;;;;18.02;54.53;101448.75;1029931;28;619;-64
2022/05/13 03:57:39;;;;;;;;;;;;;;;18.02;54.20;101451.44;1029838;28;691;-65
2022/05/13 03:58:30;;;;;;;;;;;;;;;18.02;54.26;101446.06;1033934;28;1565;-64
2022/05/13 03:59:21;;;;;;;;;;;;;;;18.01;54.05;101445.19;1032877;28;623;-64
2022/05/13 04:00:11;;;;;;;;;;;;;;;18.00;54.33;101448.88;1034358;28;1587;-62
2022/05/13 04:01:03;;;;;;;;;;;;;;;18.01;54.82;101444.34;1034113;28;685;-62
2022/05/13 04:01:53;;;;;;;;;;;;;;;18.01;53.77;101438.94;1033586;28;721;-61
2022/05/13 04:02:43;;;;;;;;;;;;;;;18.01;54.66;101444.34;1032984;28;651;-61
2022/05/13 04:03:34;;;;;;;;;;;;;;;18.00;54.33;101443.50;1032654;28;1179;-63
2022/05/13 04:04:27;;;;;;;;;;;;;;;18.02;54.19;101451.44;1033089;28;1104;-62
2022/05/13 04:08:57;;;;;;;;;;;;;;;18.00;54.25;101451.56;1033211;28;1132;-63
2022/05/13 04:09:48;;;;;;;;;;;;;;;18.00;54.10;101446.19;1031788;28;1148;-64
2022/05/13 04:10:38;;;;;;;;;;;;;;;17.99;53.84;101443.63;1033423;28;1318;-62
2022/05/13 04:11:29;;;;;;;;;;;;;;;18.01;54.45;101449.75;1031936;28;1093;-63
2022/05/13 04:16:05;;;;;;;;;;;;;;;17.99;54.14;101446.31;1031753;28;1101;-64
2022/05/13 04:16:56;;;;;;;;;;;;;;;17.99;54.53;101443.63;1032568;28;1156;-62
2022/05/13 04:17:46;;;;;;;;;;;;;;;17.99;53.79;101444.47;1032573;28;1313;-63
2022/05/13 04:18:37;;;;;;;;;;;;;;;17.98;54.44;101444.59;1032405;28;1227;-63
2022/05/13 04:19:27;;;;;;;;;;;;;;;17.98;54.45;101448.16;1033889;28;1085;-64
2022/05/13 04:20:21;;;;;;;;;;;;;;;17.98;54.26;101445.47;1087869;23;3682;-63
2022/05/13 04:21:11;;;;;;;;;;;;;;;17.99;54.50;101452.56;1029029;28;1084;-62
2022/05/13 04:22:02;;;;;;;;;;;;;;;17.99;54.79;101446.31;1031483;28;1112;-64
2022/05/13 04:22:52;;;;;;;;;;;;;;;17.98;54.51;101444.59;1033433;28;1125;-63
2022/05/13 04:23:42;;;;;;;;;;;;;;;17.97;53.92;101449.13;1031058;28;1072;-62
2022/05/13 04:24:33;;;;;;;;;;;;;;;17.97;53.90;101437.50;1033424;28;1077;-62
2022/05/13 04:25:23;;;;;;;;;;;;;;;17.97;54.51;101445.59;1030482;28;1184;-63
2022/05/13 04:26:14;;;;;;;;;;;;;;;17.97;54.63;101437.50;1033290;28;1700;-63
2022/05/13 04:27:04;;;;;;;;;;;;;;;17.97;54.34;101448.28;1031229;28;1014;-64
2022/05/13 04:27:55;;;;;;;;;;;;;;;17.97;54.14;101442.88;1033684;28;1152;-63
2022/05/13 04:28:45;;;;;;;;;;;;;;;17.97;54.22;101445.59;1031315;28;1064;-63
2022/05/13 04:29:37;;;;;;;;;;;;;;;17.96;54.40;101449.28;1033988;28;1073;-63
2022/05/13 04:30:27;;;;;;;;;;;;;;;17.96;54.85;101451.97;1031935;28;1143;-63
2022/05/13 04:31:17;;;;;;;;;;;;;;;17.96;54.10;101454.66;1033445;28;1135;-62
2022/05/13 04:32:08;;;;;;;;;;;;;;;17.95;54.77;101450.25;1031816;28;1143;-63
2022/05/13 04:32:58;;;;;;;;;;;;;;;17.95;54.25;101444.88;1033879;28;1210;-62
2022/05/13 04:33:49;;;;;;;;;;;;;;;17.95;54.14;101452.94;1029454;28;708;-63
2022/05/13 04:34:39;;;;;;;;;;;;;;;17.95;54.29;101450.25;1028880;28;1188;-62
2022/05/13 04:35:30;;;;;;;;;;;;;;;17.94;54.60;101451.25;1027621;28;1089;-62
2022/05/13 04:36:21;;;;;;;;;;;;;;;17.94;54.32;101452.09;1027327;28;1948;-64
2022/05/13 04:37:11;;;;;;;;;;;;;;;17.94;54.76;101451.25;1035218;28;1075;-63